Terminal Aerodrome Forecast
Issued by NWS Northern Indiana

Home | Current Version | Previous Version | Graphics & Text | Print | Product List | Glossary On
Versions: 1 2 3 4 5 6 7 8 9 10 11 12 13
000
FTUS43 KIWX 070108 AAA
TAFFWA
TAF AMD
KFWA 070108Z 0701/0724 17007KT 5SM HZ BKN250
     FM070800 20010KT 5SM -SHRA BR BKN030
     FM071200 23010KT 4SM -SHRA VCTS BKN015CB
     FM071600 33010KT P6SM BKN025
     FM072000 33012G18KT P6SM BKN035=

USA.gov is the U.S. government's official web portal to all federal, state and local government web resources and services.